Dayton, Ohio
Current Conditions -  °F | °C
As of 7:58 AM on Sunday 23 Nov 2014 (Local Time) from KFFO Reporting Station
Scattered Clouds Scattered Clouds  
Wind Chill:   Ceiling: Unl
Heat Index:   Visibility: 10mi
Dew Point:   Wind: 5mph
Humidity: 70%   Direction: 170°S
Pressure: 29.99"   Gusts: NA
Location:  39.76°N, 84.19°W
Report Text: KFFO 231258Z AUTO 17004KT 10SM SCT230 08/03 A2999 RMK AO2 SLP160 T00780027
Loading
Personal Weather Stations






























Interactive Weather Map New forecast layout! Learn more

10-Day Weather Forecast

Advertisements
Track Severe Weather on mobile